Terminal Aerodrome Forecast
Issued by NWS

Home | Current Version | Previous Version | Text Only | Print | Product List | Glossary On
Versions: 1 2 3 4 5 6 7 8 9 10 11 12 13 14 15
000
FTAK31 PAFA 291124
TAFAGA
TAF
PAGA 291124Z 2912/3012 VRB06KT P6SM SCT050 BKN100 OVC200
     FM292100 VRB06KT P6SM VCSH BKN035 BKN050 OVC100
     FM300000 VRB06KT 6SM -SHRA BKN025 OVC035=

USA.gov is the U.S. government's official web portal to all federal, state and local government web resources and services.